Time;durP1;ratioP1;P1;durP2;ratioP2;P2;SDS_P1;SDS_P2;PMS_P1;PMS_P2;Temp;Humidity;BMP_temperature;BMP_pressure;BME280_temperature;BME280_humidity;BME280_pressure;Samples;Min_cycle;Max_cycle;Signal;HPM_P1;HPM_P2
2021/01/20 00:03:52;;;;;;;;;;;;;;;;;;;;;
2021/01/20 00:10:20;;;;;;;;;;;;;;;;;;;;;
2021/01/20 00:13:05;;;;;;;14.23;7.13;;;;;;;;;;4339543;33;20187;-78
2021/01/20 00:25:08;;;;;;;12.50;6.60;;;;;;;;;;4300735;33;20151;-79
2021/01/20 00:30:55;;;;;;;;;;;;;;;;;;;;;
2021/01/20 00:33:31;;;;;;;15.90;7.07;;;;;;;;;;4280021;33;20156;-80
2021/01/20 00:39:21;;;;;;;;;;;;;;;;;;;;;
2021/01/20 00:41:51;;;;;;;14.43;7.40;;;;;;;;;;4286149;33;20145;-80
2021/01/20 00:44:35;;;;;;;16.40;7.57;;;;;;;;;;4297996;33;20153;-79
2021/01/20 00:47:16;;;;;;;;;;;;;;;;;;;;;
2021/01/20 00:53:11;;;;;;;;;;;;;;;;;;;;;
2021/01/20 00:55:58;;;;;;;13.93;7.53;;;;;;;;;;4257761;33;20292;-78
2021/01/20 00:58:50;;;;;;;14.27;7.87;;;;;;;;;;4269963;33;20161;-79
2021/01/20 01:07:44;;;;;;;14.53;7.50;;;;;;;;;;4376361;32;20480;-78
2021/01/20 01:10:45;;;;;;;13.07;7.07;;;;;;;;;;4374507;32;20252;-78
2021/01/20 01:13:42;;;;;;;;;;;;;;;;;;;;;
2021/01/20 01:16:16;;;;;;;11.82;7.43;;;;;;;;;;4376134;32;20471;-78
2021/01/20 01:18:43;;;;;;;12.43;6.97;;;;;;;;;;4374466;32;20510;-78
2021/01/20 01:21:39;;;;;;;16.30;8.33;;;;;;;;;;4373954;32;20162;-79
2021/01/20 01:24:17;;;;;;;14.97;7.70;;;;;;;;;;4361693;32;20627;-79
2021/01/20 01:26:42;;;;;;;15.87;7.37;;;;;;;;;;4374569;32;20154;-79
2021/01/20 01:32:23;;;;;;;;;;;;;;;;;;;;;
2021/01/20 01:34:55;;;;;;;14.87;7.90;;;;;;;;;;4314495;33;20673;-78
2021/01/20 01:44:55;;;;;;;16.67;8.43;;;;;;;;;;4294279;33;20145;-78
2021/01/20 01:47:27;;;;;;;;;;;;;;;;;;;;;
2021/01/20 01:50:02;;;;;;;16.63;8.60;;;;;;;;;;4256687;33;20160;-79
2021/01/20 01:56:06;;;;;;;16.07;8.43;;;;;;;;;;4271288;33;20188;-78
2021/01/20 01:59:03;;;;;;;14.13;8.80;;;;;;;;;;4258459;33;20204;-78
2021/01/20 02:01:30;;;;;;;16.35;8.60;;;;;;;;;;4284220;33;20172;-79
2021/01/20 02:07:12;;;;;;;19.20;10.60;;;;;;;;;;4299535;33;20661;-78
2021/01/20 02:13:03;;;;;;;18.45;10.75;;;;;;;;;;4314472;32;20564;-79
2021/01/20 02:15:56;;;;;;;18.30;10.35;;;;;;;;;;4389399;32;20162;-80
2021/01/20 02:18:57;;;;;;;17.37;10.77;;;;;;;;;;4375127;32;20189;-79
2021/01/20 02:21:55;;;;;;;21.47;10.63;;;;;;;;;;4365765;32;20162;-78
2021/01/20 02:24:51;;;;;;;21.45;10.73;;;;;;;;;;4375652;32;20170;-78
2021/01/20 02:27:55;;;;;;;;;;;;;;;;;;;;;
2021/01/20 02:30:29;;;;;;;23.23;10.80;;;;;;;;;;4355870;32;20150;-79
2021/01/20 02:33:22;;;;;;;18.60;10.57;;;;;;;;;;4377939;32;20192;-79
2021/01/20 02:39:22;;;;;;;20.83;11.20;;;;;;;;;;4331403;33;20632;-81
2021/01/20 02:45:23;;;;;;;;;;;;;;;;;;;;;
2021/01/20 02:48:16;;;;;;;19.43;11.40;;;;;;;;;;4392567;32;20665;-80
2021/01/20 02:54:00;;;;;;;16.70;10.33;;;;;;;;;;4383937;32;20193;-79
2021/01/20 03:00:04;;;;;;;16.13;9.10;;;;;;;;;;4392682;32;20161;-79
2021/01/20 03:05:29;;;;;;;19.27;9.97;;;;;;;;;;4384652;32;20151;-80
2021/01/20 03:08:25;;;;;;;18.92;9.73;;;;;;;;;;4379123;32;20178;-79
2021/01/20 03:10:54;;;;;;;18.57;10.27;;;;;;;;;;4372431;32;20231;-79
2021/01/20 03:13:21;;;;;;;20.60;10.07;;;;;;;;;;4378584;32;20236;-78
2021/01/20 03:15:55;;;;;;;17.77;9.63;;;;;;;;;;4379023;32;20230;-79
2021/01/20 03:18:22;;;;;;;18.90;10.10;;;;;;;;;;4379278;32;20463;-78
2021/01/20 03:20:48;;;;;;;17.63;10.73;;;;;;;;;;4377728;32;20154;-78
2021/01/20 03:29:33;;;;;;;15.13;8.97;;;;;;;;;;4360396;32;20265;-78
2021/01/20 03:32:08;;;;;;;15.98;8.85;;;;;;;;;;4347807;33;20209;-78
2021/01/20 03:35:19;;;;;;;;;;;;;;;;;;;;;
2021/01/20 03:38:14;;;;;;;;;;;;;;;;;;;;;
2021/01/20 03:40:45;;;;;;;19.60;9.50;;;;;;;;;;4330967;33;20182;-80
2021/01/20 03:43:41;;;;;;;17.30;9.60;;;;;;;;;;4391863;32;20165;-78
2021/01/20 03:46:19;;;;;;;16.97;10.03;;;;;;;;;;4391646;32;20162;-79
2021/01/20 03:48:44;;;;;;;15.83;9.23;;;;;;;;;;4375110;32;20544;-78
2021/01/20 03:51:18;;;;;;;17.13;9.83;;;;;;;;;;4391713;32;20162;-79
2021/01/20 03:54:02;;;;;;;19.60;10.37;;;;;;;;;;4378152;32;20218;-78
2021/01/20 03:56:44;;;;;;;22.27;10.77;;;;;;;;;;4377750;32;20234;-78
2021/01/20 03:59:32;;;;;;;19.07;9.80;;;;;;;;;;4378064;32;20878;-78
2021/01/20 04:02:11;;;;;;;;;;;;;;;;;;;;;
2021/01/20 04:11:04;;;;;;;16.87;9.30;;;;;;;;;;4359798;32;20146;-78
2021/01/20 04:13:38;;;;;;;16.20;9.50;;;;;;;;;;4391962;32;20218;-78
2021/01/20 04:16:13;;;;;;;14.17;8.27;;;;;;;;;;4378287;32;20139;-78
2021/01/20 04:19:03;;;;;;;15.57;8.77;;;;;;;;;;4378417;32;20212;-78
2021/01/20 04:21:51;;;;;;;14.13;8.53;;;;;;;;;;4377785;32;20189;-79
2021/01/20 04:27:27;;;;;;;;;;;;;;;;;;;;;
2021/01/20 04:30:11;;;;;;;14.77;8.10;;;;;;;;;;4391661;32;20134;-78
2021/01/20 04:33:14;;;;;;;13.05;7.15;;;;;;;;;;4377945;32;20147;-78
2021/01/20 04:35:56;;;;;;;15.40;7.18;;;;;;;;;;4303103;33;20249;-78
2021/01/20 04:38:24;;;;;;;11.55;6.87;;;;;;;;;;4382314;32;20208;-78
2021/01/20 04:41:20;;;;;;;13.05;6.90;;;;;;;;;;4377315;32;20158;-78
2021/01/20 04:44:02;;;;;;;;;;;;;;;;;;;;;
2021/01/20 04:47:00;;;;;;;;;;;;;;;;;;;;;
2021/01/20 04:53:24;;;;;;;13.27;7.40;;;;;;;;;;4338827;33;20286;-78
2021/01/20 04:55:50;;;;;;;9.60;6.05;;;;;;;;;;4316777;33;20163;-78
2021/01/20 04:58:21;;;;;;;9.55;6.45;;;;;;;;;;4329260;33;20627;-78
2021/01/20 05:00:47;;;;;;;11.80;6.97;;;;;;;;;;4351968;32;20162;-78
2021/01/20 05:03:22;;;;;;;11.17;6.63;;;;;;;;;;4362242;32;20174;-78
2021/01/20 05:05:47;;;;;;;12.98;6.70;;;;;;;;;;4362948;32;20212;-78
2021/01/20 05:08:23;;;;;;;12.63;6.28;;;;;;;;;;4361942;32;20167;-78
2021/01/20 05:10:58;;;;;;;13.10;6.47;;;;;;;;;;4375188;32;20176;-78
2021/01/20 05:16:34;;;;;;;9.52;5.87;;;;;;;;;;4375528;32;20257;-78
2021/01/20 05:19:01;;;;;;;13.62;6.75;;;;;;;;;;4362287;32;20265;-78
2021/01/20 05:22:11;;;;;;;10.63;6.15;;;;;;;;;;4361490;32;20215;-78
2021/01/20 05:24:20;;;;;;;9.35;5.30;;;;;;;;;;4369531;32;20239;-78
2021/01/20 05:26:49;;;;;;;9.60;5.93;;;;;;;;;;4374730;32;20181;-78
2021/01/20 05:29:36;;;;;;;10.02;6.15;;;;;;;;;;4361156;32;20155;-78
2021/01/20 05:32:17;;;;;;;9.80;5.97;;;;;;;;;;4361656;32;20260;-77
2021/01/20 05:35:21;;;;;;;9.52;5.82;;;;;;;;;;4374096;32;20150;-78
2021/01/20 05:37:47;;;;;;;11.20;5.95;;;;;;;;;;4314439;33;20187;-77
2021/01/20 05:40:43;;;;;;;9.05;6.28;;;;;;;;;;4358595;32;20250;-78
2021/01/20 05:43:31;;;;;;;10.57;5.45;;;;;;;;;;4376413;32;20216;-78
2021/01/20 05:45:57;;;;;;;9.30;5.65;;;;;;;;;;4377263;32;20150;-78
2021/01/20 05:48:30;;;;;;;7.53;4.87;;;;;;;;;;4376444;32;20196;-79
2021/01/20 05:51:04;;;;;;;9.37;5.37;;;;;;;;;;4376268;32;20166;-79
2021/01/20 05:56:47;;;;;;;8.73;5.00;;;;;;;;;;4337165;33;20592;-78
2021/01/20 05:59:27;;;;;;;10.97;5.87;;;;;;;;;;4387790;32;20170;-76
2021/01/20 06:01:55;;;;;;;9.60;4.70;;;;;;;;;;4389709;32;20165;-77
2021/01/20 06:04:49;;;;;;;10.25;5.20;;;;;;;;;;4391562;32;20153;-78
2021/01/20 06:07:28;;;;;;;7.93;5.15;;;;;;;;;;4393621;32;20215;-77
2021/01/20 06:09:53;;;;;;;7.97;4.78;;;;;;;;;;4389625;32;20200;-77
2021/01/20 06:12:19;;;;;;;8.20;5.10;;;;;;;;;;4376176;32;20709;-76
2021/01/20 06:14:44;;;;;;;9.77;5.45;;;;;;;;;;4376056;32;20170;-77
2021/01/20 06:17:41;;;;;;;7.47;5.12;;;;;;;;;;4376420;32;20162;-77
2021/01/20 06:20:07;;;;;;;9.52;5.37;;;;;;;;;;4375837;32;20228;-78
2021/01/20 06:22:32;;;;;;;7.03;4.62;;;;;;;;;;4363294;32;20167;-77
2021/01/20 06:25:09;;;;;;;7.62;5.18;;;;;;;;;;4374534;32;20502;-78
2021/01/20 06:27:54;;;;;;;9.20;4.93;;;;;;;;;;4375631;32;20228;-77
2021/01/20 06:30:36;;;;;;;8.82;4.78;;;;;;;;;;4376160;32;20228;-76
2021/01/20 06:33:25;;;;;;;;;;;;;;;;;;;;;
2021/01/20 06:35:55;;;;;;;6.75;4.70;;;;;;;;;;4384733;32;20257;-77
2021/01/20 06:38:29;;;;;;;6.30;4.47;;;;;;;;;;4375777;32;20154;-78
2021/01/20 06:40:55;;;;;;;5.78;4.32;;;;;;;;;;4375548;32;20215;-77
2021/01/20 06:43:34;;;;;;;8.00;4.95;;;;;;;;;;4375950;32;20154;-77
2021/01/20 06:46:11;;;;;;;6.15;4.53;;;;;;;;;;4375463;32;20231;-77
2021/01/20 06:48:51;;;;;;;7.75;4.87;;;;;;;;;;4389397;32;20191;-77
2021/01/20 06:51:16;;;;;;;8.82;4.40;;;;;;;;;;4375605;32;20181;-78
2021/01/20 06:54:00;;;;;;;7.68;4.50;;;;;;;;;;4389182;32;20229;-78
2021/01/20 06:56:30;;;;;;;6.03;3.90;;;;;;;;;;4375831;32;20166;-77
2021/01/20 06:59:33;;;;;;;;;;;;;;;;;;;;;
2021/01/20 07:02:12;;;;;;;5.97;4.50;;;;;;;;;;4389425;32;20178;-76
2021/01/20 07:04:50;;;;;;;;;;;;;;;;;;;;;
2021/01/20 07:07:36;;;;;;;5.53;3.87;;;;;;;;;;4389434;32;20161;-78
2021/01/20 07:10:08;;;;;;;8.82;4.57;;;;;;;;;;4375829;32;20155;-78
2021/01/20 07:12:36;;;;;;;8.35;4.50;;;;;;;;;;4375973;32;20235;-78
2021/01/20 07:15:04;;;;;;;7.95;4.85;;;;;;;;;;4375913;32;20154;-76
2021/01/20 07:17:33;;;;;;;7.90;4.85;;;;;;;;;;4375852;32;20621;-77
2021/01/20 07:20:10;;;;;;;7.90;4.62;;;;;;;;;;4391997;32;20169;-77
2021/01/20 07:22:55;;;;;;;6.53;4.28;;;;;;;;;;4375909;32;20173;-78
2021/01/20 07:25:38;;;;;;;7.00;4.30;;;;;;;;;;4377988;32;20146;-77
2021/01/20 07:28:04;;;;;;;7.97;4.30;;;;;;;;;;4378626;32;20220;-76
2021/01/20 07:33:22;;;;;;;6.18;4.15;;;;;;;;;;4359822;32;20210;-78
2021/01/20 07:35:50;;;;;;;8.95;4.20;;;;;;;;;;4347337;33;20166;-77
2021/01/20 07:38:18;;;;;;;6.97;4.80;;;;;;;;;;4368165;32;20700;-77
2021/01/20 07:40:44;;;;;;;6.87;4.60;;;;;;;;;;4392383;32;20162;-77
2021/01/20 07:43:53;;;;;;;8.25;4.20;;;;;;;;;;4393216;32;20236;-77
2021/01/20 07:46:26;;;;;;;7.35;4.22;;;;;;;;;;4393677;32;20169;-76
2021/01/20 07:49:09;;;;;;;8.95;4.15;;;;;;;;;;4391590;32;20162;-75
2021/01/20 07:51:34;;;;;;;7.30;4.10;;;;;;;;;;4393165;32;20165;-76
2021/01/20 07:54:04;;;;;;;5.65;3.85;;;;;;;;;;4392133;32;20196;-77
2021/01/20 07:56:30;;;;;;;6.60;4.20;;;;;;;;;;4392524;32;20193;-77
2021/01/20 07:59:04;;;;;;;6.68;4.18;;;;;;;;;;4406860;32;20129;-77
2021/01/20 08:01:32;;;;;;;7.65;4.00;;;;;;;;;;4392530;32;20610;-76
2021/01/20 08:03:58;;;;;;;4.87;3.60;;;;;;;;;;4406524;32;20147;-76
2021/01/20 08:06:33;;;;;;;6.18;3.95;;;;;;;;;;4393068;32;20154;-76
2021/01/20 08:08:58;;;;;;;6.12;4.15;;;;;;;;;;4392889;32;20153;-77
2021/01/20 08:11:27;;;;;;;6.35;3.67;;;;;;;;;;4392463;32;20617;-76
2021/01/20 08:16:40;;;;;;;6.70;3.30;;;;;;;;;;4406289;32;20153;-79
2021/01/20 08:19:34;;;;;;;;;;;;;;;;;;;;;
2021/01/20 08:22:10;;;;;;;;;;;;;;;;;;;;;
2021/01/20 08:24:42;;;;;;;5.78;3.40;;;;;;;;;;4398845;32;20172;-77
2021/01/20 08:27:14;;;;;;;6.37;3.70;;;;;;;;;;4392223;32;20158;-77
2021/01/20 08:29:58;;;;;;;4.85;3.20;;;;;;;;;;4386102;32;20236;-77
2021/01/20 08:32:33;;;;;;;;;;;;;;;;;;;;;
2021/01/20 08:35:05;;;;;;;6.82;3.53;;;;;;;;;;4392098;32;20227;-78
2021/01/20 08:37:41;;;;;;;5.25;3.20;;;;;;;;;;4376981;32;20256;-77
2021/01/20 08:40:22;;;;;;;4.80;2.97;;;;;;;;;;4390634;32;20188;-77
2021/01/20 08:42:47;;;;;;;6.00;3.53;;;;;;;;;;4376864;32;20165;-77
2021/01/20 08:45:23;;;;;;;6.10;3.03;;;;;;;;;;4376888;32;20571;-77
2021/01/20 08:47:55;;;;;;;4.85;2.72;;;;;;;;;;4374957;32;20177;-78
2021/01/20 08:51:05;;;;;;;4.18;2.60;;;;;;;;;;4377596;32;20195;-78
2021/01/20 08:53:42;;;;;;;6.20;2.87;;;;;;;;;;4375063;32;20623;-76
2021/01/20 08:59:28;;;;;;;3.70;2.28;;;;;;;;;;4398183;32;20216;-77
2021/01/20 09:01:56;;;;;;;5.53;2.42;;;;;;;;;;4412977;32;20153;-76
2021/01/20 09:04:21;;;;;;;5.37;2.53;;;;;;;;;;4398672;32;20162;-76
2021/01/20 09:06:51;;;;;;;5.78;2.60;;;;;;;;;;4376873;32;20197;-78
2021/01/20 09:09:16;;;;;;;3.62;2.33;;;;;;;;;;4376471;32;20248;-79
2021/01/20 09:11:42;;;;;;;5.53;2.65;;;;;;;;;;4376422;32;20189;-76
2021/01/20 09:14:26;;;;;;;7.68;2.50;;;;;;;;;;4376472;32;20200;-76
2021/01/20 09:16:53;;;;;;;3.25;2.28;;;;;;;;;;4388992;32;20212;-79
2021/01/20 09:19:29;;;;;;;3.28;2.15;;;;;;;;;;4395710;32;20149;-76
2021/01/20 09:21:55;;;;;;;3.72;2.17;;;;;;;;;;4396357;32;20169;-75
2021/01/20 09:27:57;;;;;;;5.10;2.30;;;;;;;;;;4402342;32;20231;-76
2021/01/20 09:30:23;;;;;;;4.85;2.22;;;;;;;;;;4389935;32;20251;-76
2021/01/20 09:32:48;;;;;;;3.35;2.35;;;;;;;;;;4390679;32;20651;-76
2021/01/20 09:35:15;;;;;;;3.83;2.35;;;;;;;;;;4390973;32;20173;-77
2021/01/20 09:38:16;;;;;;;;;;;;;;;;;;;;;
2021/01/20 09:40:41;;;;;;;4.25;2.28;;;;;;;;;;4401794;32;20497;-76
2021/01/20 09:43:26;;;;;;;2.42;1.90;;;;;;;;;;4384188;32;20165;-77
2021/01/20 09:45:57;;;;;;;4.57;2.00;;;;;;;;;;4398562;32;20177;-76
2021/01/20 09:48:22;;;;;;;4.10;2.17;;;;;;;;;;4416236;32;20150;-77
2021/01/20 09:50:47;;;;;;;3.50;1.90;;;;;;;;;;4404929;32;20210;-77
2021/01/20 09:53:15;;;;;;;3.78;2.30;;;;;;;;;;4389786;32;20170;-78
2021/01/20 09:55:46;;;;;;;3.45;2.20;;;;;;;;;;4387954;32;20525;-76
2021/01/20 09:58:22;;;;;;;3.17;2.00;;;;;;;;;;4388194;32;20167;-76
2021/01/20 10:01:32;;;;;;;4.40;2.20;;;;;;;;;;4388418;32;20170;-75
2021/01/20 10:03:39;;;;;;;1.87;1.60;;;;;;;;;;4381492;32;20236;-78
2021/01/20 10:06:11;;;;;;;5.32;2.10;;;;;;;;;;4387883;32;20306;-75
2021/01/20 10:08:41;;;;;;;4.20;2.30;;;;;;;;;;4389405;32;20590;-76
2021/01/20 10:11:07;;;;;;;5.85;2.15;;;;;;;;;;4389646;32;20142;-75
2021/01/20 10:13:34;;;;;;;6.62;2.53;;;;;;;;;;4389827;32;20153;-76
2021/01/20 10:16:00;;;;;;;5.20;2.03;;;;;;;;;;4388954;32;20228;-75
2021/01/20 10:18:31;;;;;;;3.75;1.98;;;;;;;;;;4396555;32;20169;-76
2021/01/20 10:21:10;;;;;;;3.47;2.40;;;;;;;;;;4390517;32;20220;-76
2021/01/20 10:24:03;;;;;;;5.55;2.22;;;;;;;;;;4404521;32;20168;-77
2021/01/20 10:26:31;;;;;;;5.53;2.50;;;;;;;;;;4390502;32;20157;-77
2021/01/20 10:28:59;;;;;;;3.78;2.20;;;;;;;;;;4390661;32;20169;-77
2021/01/20 10:31:41;;;;;;;2.60;1.80;;;;;;;;;;4390277;32;20648;-78
2021/01/20 10:34:09;;;;;;;3.90;2.22;;;;;;;;;;4403897;32;20417;-76
2021/01/20 10:37:06;;;;;;;3.00;2.10;;;;;;;;;;4376029;32;20482;-77
2021/01/20 10:39:40;;;;;;;5.50;2.25;;;;;;;;;;4388467;32;20233;-76
2021/01/20 10:42:09;;;;;;;3.72;2.10;;;;;;;;;;4389635;32;20138;-77
2021/01/20 10:44:34;;;;;;;3.55;2.20;;;;;;;;;;4374828;32;20162;-75
2021/01/20 10:46:59;;;;;;;4.93;3.05;;;;;;;;;;4375046;32;20165;-77
2021/01/20 10:49:26;;;;;;;4.30;2.20;;;;;;;;;;4388734;32;20162;-76
2021/01/20 10:51:54;;;;;;;7.47;4.68;;;;;;;;;;4390654;32;20165;-76
2021/01/20 10:54:23;;;;;;;4.57;2.28;;;;;;;;;;4406733;32;20150;-77
2021/01/20 10:56:49;;;;;;;4.70;2.42;;;;;;;;;;4393269;32;20178;-77
2021/01/20 10:59:17;;;;;;;4.68;2.53;;;;;;;;;;4393062;32;20192;-76
2021/01/20 11:01:48;;;;;;;2.95;2.03;;;;;;;;;;4393291;32;20662;-77
2021/01/20 11:04:25;;;;;;;6.62;2.45;;;;;;;;;;4393820;32;20153;-78
2021/01/20 11:07:08;;;;;;;4.40;2.33;;;;;;;;;;4407398;32;20173;-79
2021/01/20 11:09:36;;;;;;;3.90;2.58;;;;;;;;;;4393368;32;20161;-78
2021/01/20 11:12:08;;;;;;;4.87;2.12;;;;;;;;;;4393716;32;20592;-77
2021/01/20 11:14:35;;;;;;;4.32;2.30;;;;;;;;;;4393953;32;20188;-76
2021/01/20 11:20:03;;;;;;;5.57;2.58;;;;;;;;;;4405958;32;20219;-77
2021/01/20 11:22:36;;;;;;;5.18;2.70;;;;;;;;;;4386025;32;20261;-78
2021/01/20 11:25:08;;;;;;;4.80;2.28;;;;;;;;;;4378311;32;20575;-78
2021/01/20 11:28:07;;;;;;;;;;;;;;;;;;;;;
2021/01/20 11:30:32;;;;;;;5.57;2.80;;;;;;;;;;4391745;32;20193;-78
2021/01/20 11:39:36;;;;;;;2.92;2.05;;;;;;;;;;4398935;32;20149;-79
2021/01/20 11:42:12;;;;;;;5.18;2.50;;;;;;;;;;4310532;33;20296;-78
2021/01/20 11:44:53;;;;;;;3.42;2.47;;;;;;;;;;4315905;33;20196;-77
2021/01/20 11:47:39;;;;;;;3.97;2.40;;;;;;;;;;4304443;33;20163;-77
2021/01/20 11:50:12;;;;;;;5.37;2.33;;;;;;;;;;4348492;32;20162;-77
2021/01/20 11:52:37;;;;;;;3.15;2.10;;;;;;;;;;4392985;32;20214;-78
2021/01/20 11:58:03;;;;;;;9.68;2.42;;;;;;;;;;4374102;32;20181;-77
2021/01/20 12:00:49;;;;;;;3.30;2.28;;;;;;;;;;4402720;32;20723;-77
2021/01/20 12:03:15;;;;;;;3.87;2.20;;;;;;;;;;4405325;32;20154;-78
2021/01/20 12:05:53;;;;;;;2.87;1.90;;;;;;;;;;4405451;32;20180;-78
2021/01/20 12:08:30;;;;;;;3.58;2.20;;;;;;;;;;4405041;32;20154;-77
2021/01/20 12:11:18;;;;;;;3.60;2.10;;;;;;;;;;4405632;32;20615;-78
2021/01/20 12:13:51;;;;;;;4.80;2.00;;;;;;;;;;4404091;32;20177;-78
2021/01/20 12:16:17;;;;;;;4.97;2.10;;;;;;;;;;4398398;32;20274;-78
2021/01/20 12:19:08;;;;;;;4.60;2.30;;;;;;;;;;4391768;32;20162;-77
2021/01/20 12:21:45;;;;;;;3.78;2.08;;;;;;;;;;4321138;33;20182;-77
2021/01/20 12:24:16;;;;;;;3.78;2.42;;;;;;;;;;4331578;32;20254;-77
2021/01/20 12:27:02;;;;;;;4.90;2.10;;;;;;;;;;4391465;32;20194;-78
2021/01/20 12:29:55;;;;;;;3.92;2.25;;;;;;;;;;4402990;32;20218;-78
2021/01/20 12:38:46;;;;;;;4.40;2.33;;;;;;;;;;4404496;32;20176;-77
2021/01/20 12:41:12;;;;;;;4.00;2.30;;;;;;;;;;4391087;32;20229;-76
2021/01/20 12:43:47;;;;;;;7.03;2.58;;;;;;;;;;4392144;32;20171;-77
2021/01/20 12:46:23;;;;;;;4.62;2.05;;;;;;;;;;4392140;32;20170;-77
2021/01/20 12:55:31;;;;;;;4.15;2.03;;;;;;;;;;4348885;32;20162;-77
2021/01/20 13:10:03;;;;;;;4.65;2.17;;;;;;;;;;4390628;32;20216;-77
2021/01/20 13:12:38;;;;;;;;;;;;;;;;;;;;;
2021/01/20 13:15:19;;;;;;;4.50;1.83;;;;;;;;;;4323115;33;20178;-77
2021/01/20 13:21:22;;;;;;;;;;;;;;;;;;;;;
2021/01/20 13:24:06;;;;;;;4.12;2.70;;;;;;;;;;4299938;33;20144;-77
2021/01/20 13:26:56;;;;;;;4.45;1.92;;;;;;;;;;4323017;32;20238;-76
2021/01/20 13:29:21;;;;;;;3.58;2.08;;;;;;;;;;4386733;32;20166;-76
2021/01/20 13:31:49;;;;;;;3.83;2.17;;;;;;;;;;4386115;32;20142;-76
2021/01/20 13:34:15;;;;;;;4.35;2.10;;;;;;;;;;4389936;32;20177;-76
2021/01/20 13:36:40;;;;;;;4.57;1.83;;;;;;;;;;4389554;32;20610;-77
2021/01/20 13:39:30;;;;;;;3.05;1.90;;;;;;;;;;4376145;32;20670;-77
2021/01/20 13:45:29;;;;;;;6.47;2.50;;;;;;;;;;4328595;33;20163;-77
2021/01/20 13:48:40;;;;;;;;;;;;;;;;;;;;;
2021/01/20 13:51:30;;;;;;;4.50;1.77;;;;;;;;;;4327990;33;20182;-76
2021/01/20 13:54:38;;;;;;;;;;;;;;;;;;;;;
2021/01/20 13:57:06;;;;;;;3.67;2.05;;;;;;;;;;4400537;32;20603;-76
2021/01/20 14:02:49;;;;;;;3.10;1.70;;;;;;;;;;4378969;32;20189;-77
2021/01/20 14:08:27;;;;;;;5.35;1.83;;;;;;;;;;4320195;33;20663;-77
2021/01/20 14:11:13;;;;;;;3.75;2.10;;;;;;;;;;4328059;33;20182;-78
2021/01/20 14:13:59;;;;;;;4.93;1.90;;;;;;;;;;4314776;33;20190;-77
2021/01/20 14:16:33;;;;;;;3.62;2.00;;;;;;;;;;4326892;33;20172;-78
2021/01/20 14:19:11;;;;;;;2.78;1.65;;;;;;;;;;4367711;32;20239;-78
2021/01/20 14:21:37;;;;;;;5.72;2.25;;;;;;;;;;4378517;32;20181;-77
2021/01/20 14:24:05;;;;;;;6.97;2.22;;;;;;;;;;4376165;32;20527;-78
2021/01/20 14:26:57;;;;;;;;;;;;;;;;;;;;;
2021/01/20 14:32:53;;;;;;;3.40;1.70;;;;;;;;;;4366925;32;20242;-79
2021/01/20 14:38:34;;;;;;;3.70;2.12;;;;;;;;;;4323652;33;20178;-76
2021/01/20 14:41:52;;;;;;;6.18;2.10;;;;;;;;;;4328699;33;20213;-88
2021/01/20 14:44:33;;;;;;;;;;;;;;;;;;;;;
2021/01/20 14:50:22;;;;;;;3.20;1.67;;;;;;;;;;4317661;33;20161;-89
2021/01/20 14:56:14;;;;;;;7.07;1.95;;;;;;;;;;4332945;33;20181;-87
2021/01/20 15:01:48;;;;;;;;;;;;;;;;;;;;;
2021/01/20 15:08:00;;;;;;;3.22;1.80;;;;;;;;;;4352480;33;20606;-90
2021/01/20 15:14:10;;;;;;;5.75;2.40;;;;;;;;;;4295259;33;20607;-89
2021/01/20 15:23:25;;;;;;;;;;;;;;;;;;;;;
2021/01/20 15:26:30;;;;;;;;;;;;;;;;;;;;;
2021/01/20 15:59:31;;;;;;;5.20;2.40;;;;;;;;;;4258289;33;20243;-88
2021/01/20 16:02:18;;;;;;;5.72;1.80;;;;;;;;;;4258504;33;20165;-89
2021/01/20 16:05:22;;;;;;;3.47;2.10;;;;;;;;;;4262654;33;20169;-89
2021/01/20 16:08:15;;;;;;;6.22;2.05;;;;;;;;;;4272828;33;20183;-88
2021/01/20 16:11:19;;;;;;;4.07;2.12;;;;;;;;;;4289615;33;20229;-87
2021/01/20 16:14:40;;;;;;;;;;;;;;;;;;;;;
2021/01/20 16:29:08;;;;;;;2.95;1.95;;;;;;;;;;4313288;32;20633;-84
2021/01/20 16:33:07;;;;;;;;;;;;;;;;;;;;;
2021/01/20 16:44:21;;;;;;;3.75;2.42;;;;;;;;;;4359614;33;20220;-87
2021/01/20 16:59:38;;;;;;;;;;;;;;;;;;;;;
2021/01/20 17:02:15;;;;;;;5.97;2.42;;;;;;;;;;4408619;32;20464;-89
2021/01/20 17:04:54;;;;;;;;;;;;;;;;;;;;;
2021/01/20 17:07:25;;;;;;;4.20;2.25;;;;;;;;;;4406682;32;20169;-88
2021/01/20 17:10:14;;;;;;;;;;;;;;;;;;;;;
2021/01/20 17:12:45;;;;;;;6.03;2.50;;;;;;;;;;4406973;32;20126;-88
2021/01/20 17:15:37;;;;;;;6.43;2.60;;;;;;;;;;4389584;32;20206;-88
2021/01/20 17:21:26;;;;;;;4.25;2.50;;;;;;;;;;4374354;32;20146;-87
2021/01/20 17:27:20;;;;;;;5.75;2.65;;;;;;;;;;4365917;32;20654;-88
2021/01/20 17:30:34;;;;;;;;;;;;;;;;;;;;;
2021/01/20 17:32:55;;;;;;;3.42;2.30;;;;;;;;;;4390175;32;20150;-87
2021/01/20 17:38:41;;;;;;;3.90;2.62;;;;;;;;;;4405904;32;20214;-87
2021/01/20 17:41:27;;;;;;;4.50;2.60;;;;;;;;;;4404566;32;20168;-89
2021/01/20 17:47:18;;;;;;;4.85;2.42;;;;;;;;;;4359440;32;20193;-89
2021/01/20 18:19:53;;;;;;;;;;;;;;;;;;;;;
2021/01/20 18:29:08;;;;;;;6.82;2.53;;;;;;;;;;4301846;33;20162;-86
2021/01/20 18:35:43;;;;;;;4.10;2.08;;;;;;;;;;4287144;33;20267;-88
2021/01/20 18:38:10;;;;;;;4.35;2.40;;;;;;;;;;4291264;33;20227;-88
2021/01/20 18:43:37;;;;;;;6.43;3.10;;;;;;;;;;4359950;33;20165;-89
2021/01/20 18:55:28;;;;;;;4.72;2.40;;;;;;;;;;4388622;32;20176;-88
2021/01/20 19:19:50;;;;;;;5.07;2.47;;;;;;;;;;4331433;33;20186;-87
2021/01/20 19:47:21;;;;;;;6.32;2.72;;;;;;;;;;4361216;32;20150;-86
2021/01/20 20:43:56;;;;;;;4.70;2.42;;;;;;;;;;4330874;33;20728;-90
2021/01/20 21:02:00;;;;;;;5.47;2.65;;;;;;;;;;4272025;33;20203;-85
2021/01/20 21:23:14;;;;;;;3.62;2.40;;;;;;;;;;4344552;32;20658;-84
2021/01/20 21:34:42;;;;;;;5.45;2.42;;;;;;;;;;4374116;32;20229;-85
2021/01/20 21:40:47;;;;;;;;;;;;;;;;;;;;;
2021/01/20 21:52:59;;;;;;;;;;;;;;;;;;;;;
2021/01/20 21:55:49;;;;;;;3.83;2.97;;;;;;;;;;4358959;33;20169;-87
2021/01/20 22:05:17;;;;;;;;;;;;;;;;;;;;;
2021/01/20 22:51:14;;;;;;;3.08;2.20;;;;;;;;;;4226410;34;20186;-84
2021/01/20 23:00:06;;;;;;;4.53;2.08;;;;;;;;;;4302772;33;20155;-84
2021/01/20 23:03:05;;;;;;;4.35;1.83;;;;;;;;;;4302172;33;20657;-86
2021/01/20 23:23:58;;;;;;;2.97;1.90;;;;;;;;;;4352107;33;20150;-86
2021/01/20 23:35:27;;;;;;;;;;;;;;;;;;;;;
2021/01/20 23:43:42;;;;;;;2.85;1.87;;;;;;;;;;4302327;33;20160;-86
